sensor_id;sensor_type;location;lat;lon;timestamp;temperature;humidity
7240;DHT22;3661;53.288;10.458;2022-09-24T00:00:23;12.50;99.90
7240;DHT22;3661;53.288;10.458;2022-09-24T00:02:56;12.50;99.90
7240;DHT22;3661;53.288;10.458;2022-09-24T00:05:28;12.50;99.90
7240;DHT22;3661;53.288;10.458;2022-09-24T00:08:01;12.50;99.90
7240;DHT22;3661;53.288;10.458;2022-09-24T00:10:36;12.50;99.90
7240;DHT22;3661;53.288;10.458;2022-09-24T00:13:12;12.50;99.90
7240;DHT22;3661;53.288;10.458;2022-09-24T00:15:48;12.50;99.90
7240;DHT22;3661;53.288;10.458;2022-09-24T00:18:21;12.50;99.90
7240;DHT22;3661;53.288;10.458;2022-09-24T00:20:53;12.50;99.90
7240;DHT22;3661;53.288;10.458;2022-09-24T00:23:25;12.40;99.90
7240;DHT22;3661;53.288;10.458;2022-09-24T00:25:58;12.40;99.90
7240;DHT22;3661;53.288;10.458;2022-09-24T00:28:51;12.40;99.90
7240;DHT22;3661;53.288;10.458;2022-09-24T00:31:27;12.40;99.90
7240;DHT22;3661;53.288;10.458;2022-09-24T00:34:00;12.40;99.90
7240;DHT22;3661;53.288;10.458;2022-09-24T00:36:35;12.40;99.90
7240;DHT22;3661;53.288;10.458;2022-09-24T00:39:08;12.40;99.90
7240;DHT22;3661;53.288;10.458;2022-09-24T00:41:41;12.40;99.90
7240;DHT22;3661;53.288;10.458;2022-09-24T00:47:37;12.30;99.90
7240;DHT22;3661;53.288;10.458;2022-09-24T00:50:16;12.30;99.90
7240;DHT22;3661;53.288;10.458;2022-09-24T00:52:51;12.30;99.90
7240;DHT22;3661;53.288;10.458;2022-09-24T00:55:24;12.30;99.90
7240;DHT22;3661;53.288;10.458;2022-09-24T00:57:59;12.30;99.90
7240;DHT22;3661;53.288;10.458;2022-09-24T01:00:36;12.30;99.90
7240;DHT22;3661;53.288;10.458;2022-09-24T01:03:12;12.30;99.90
7240;DHT22;3661;53.288;10.458;2022-09-24T01:05:47;12.30;99.90
7240;DHT22;3661;53.288;10.458;2022-09-24T01:08:21;12.30;99.90
7240;DHT22;3661;53.288;10.458;2022-09-24T01:14:30;12.30;99.90
7240;DHT22;3661;53.288;10.458;2022-09-24T01:17:12;12.30;99.90
7240;DHT22;3661;53.288;10.458;2022-09-24T01:23:12;12.30;99.90
7240;DHT22;3661;53.288;10.458;2022-09-24T01:26:01;12.20;99.90
7240;DHT22;3661;53.288;10.458;2022-09-24T01:28:52;12.20;99.90
7240;DHT22;3661;53.288;10.458;2022-09-24T01:31:40;12.20;99.90
7240;DHT22;3661;53.288;10.458;2022-09-24T01:34:21;12.20;99.90
7240;DHT22;3661;53.288;10.458;2022-09-24T01:36:57;12.20;99.90
7240;DHT22;3661;53.288;10.458;2022-09-24T01:39:31;12.20;99.90
7240;DHT22;3661;53.288;10.458;2022-09-24T01:42:04;12.20;99.90
7240;DHT22;3661;53.288;10.458;2022-09-24T01:44:38;12.20;99.90
7240;DHT22;3661;53.288;10.458;2022-09-24T01:47:17;12.10;99.90
7240;DHT22;3661;53.288;10.458;2022-09-24T01:49:51;12.10;99.90
7240;DHT22;3661;53.288;10.458;2022-09-24T01:52:27;12.10;99.90
7240;DHT22;3661;53.288;10.458;2022-09-24T01:55:02;12.10;99.90
7240;DHT22;3661;53.288;10.458;2022-09-24T01:57:40;12.10;99.90
7240;DHT22;3661;53.288;10.458;2022-09-24T02:00:16;12.10;99.90
7240;DHT22;3661;53.288;10.458;2022-09-24T02:02:58;12.10;99.90
7240;DHT22;3661;53.288;10.458;2022-09-24T02:05:34;12.10;99.90
7240;DHT22;3661;53.288;10.458;2022-09-24T02:08:12;12.10;99.90
7240;DHT22;3661;53.288;10.458;2022-09-24T02:10:51;12.00;99.90
7240;DHT22;3661;53.288;10.458;2022-09-24T02:13:28;12.00;99.90
7240;DHT22;3661;53.288;10.458;2022-09-24T02:16:09;12.00;99.90
7240;DHT22;3661;53.288;10.458;2022-09-24T02:18:47;12.00;99.90
7240;DHT22;3661;53.288;10.458;2022-09-24T02:21:23;12.00;99.90
7240;DHT22;3661;53.288;10.458;2022-09-24T02:23:58;12.00;99.90
7240;DHT22;3661;53.288;10.458;2022-09-24T02:26:32;12.00;99.90
7240;DHT22;3661;53.288;10.458;2022-09-24T02:29:07;12.00;99.90
7240;DHT22;3661;53.288;10.458;2022-09-24T02:31:41;12.00;99.90
7240;DHT22;3661;53.288;10.458;2022-09-24T02:34:20;12.00;99.90
7240;DHT22;3661;53.288;10.458;2022-09-24T02:36:58;12.00;99.90
7240;DHT22;3661;53.288;10.458;2022-09-24T02:46:11;11.90;99.90
7240;DHT22;3661;53.288;10.458;2022-09-24T02:48:43;11.90;99.90
7240;DHT22;3661;53.288;10.458;2022-09-24T02:51:18;11.90;99.90
7240;DHT22;3661;53.288;10.458;2022-09-24T02:53:51;11.90;99.90
7240;DHT22;3661;53.288;10.458;2022-09-24T02:56:25;11.90;99.90
7240;DHT22;3661;53.288;10.458;2022-09-24T02:58:58;11.90;99.90
7240;DHT22;3661;53.288;10.458;2022-09-24T03:01:33;11.90;99.90
7240;DHT22;3661;53.288;10.458;2022-09-24T03:04:05;11.90;99.90
7240;DHT22;3661;53.288;10.458;2022-09-24T03:06:40;11.90;99.90
7240;DHT22;3661;53.288;10.458;2022-09-24T03:09:13;11.90;99.90
7240;DHT22;3661;53.288;10.458;2022-09-24T03:11:45;11.90;99.90
7240;DHT22;3661;53.288;10.458;2022-09-24T03:14:18;11.90;99.90
7240;DHT22;3661;53.288;10.458;2022-09-24T03:16:50;11.90;99.90
7240;DHT22;3661;53.288;10.458;2022-09-24T03:19:30;11.90;99.90
7240;DHT22;3661;53.288;10.458;2022-09-24T03:22:04;11.90;99.90
7240;DHT22;3661;53.288;10.458;2022-09-24T03:24:36;11.90;99.90
7240;DHT22;3661;53.288;10.458;2022-09-24T03:27:09;11.90;99.90
7240;DHT22;3661;53.288;10.458;2022-09-24T03:29:42;11.90;99.90
7240;DHT22;3661;53.288;10.458;2022-09-24T03:32:31;11.90;99.90
7240;DHT22;3661;53.288;10.458;2022-09-24T03:35:08;11.90;99.90
7240;DHT22;3661;53.288;10.458;2022-09-24T03:37:43;11.90;99.90
7240;DHT22;3661;53.288;10.458;2022-09-24T03:40:16;11.90;99.90
7240;DHT22;3661;53.288;10.458;2022-09-24T03:42:49;11.90;99.90
7240;DHT22;3661;53.288;10.458;2022-09-24T03:45:21;11.90;99.90
7240;DHT22;3661;53.288;10.458;2022-09-24T03:47:53;11.90;99.90
7240;DHT22;3661;53.288;10.458;2022-09-24T03:50:25;11.90;99.90
7240;DHT22;3661;53.288;10.458;2022-09-24T03:52:59;11.90;99.90
7240;DHT22;3661;53.288;10.458;2022-09-24T03:55:31;11.90;99.90
7240;DHT22;3661;53.288;10.458;2022-09-24T03:58:03;11.90;99.90
7240;DHT22;3661;53.288;10.458;2022-09-24T04:00:35;11.90;99.90
7240;DHT22;3661;53.288;10.458;2022-09-24T04:03:07;11.90;99.90
7240;DHT22;3661;53.288;10.458;2022-09-24T04:09:08;11.80;99.90
7240;DHT22;3661;53.288;10.458;2022-09-24T04:11:41;11.80;99.90
7240;DHT22;3661;53.288;10.458;2022-09-24T04:14:13;11.80;99.90
7240;DHT22;3661;53.288;10.458;2022-09-24T04:16:46;11.80;99.90
7240;DHT22;3661;53.288;10.458;2022-09-24T04:19:19;11.80;99.90
7240;DHT22;3661;53.288;10.458;2022-09-24T04:21:52;11.80;99.90
7240;DHT22;3661;53.288;10.458;2022-09-24T04:24:26;11.80;99.90
7240;DHT22;3661;53.288;10.458;2022-09-24T04:26:58;11.80;99.90
7240;DHT22;3661;53.288;10.458;2022-09-24T04:29:33;11.80;99.90
7240;DHT22;3661;53.288;10.458;2022-09-24T04:32:05;11.80;99.90
7240;DHT22;3661;53.288;10.458;2022-09-24T04:38:04;11.80;99.90
7240;DHT22;3661;53.288;10.458;2022-09-24T04:40:38;11.80;99.90
7240;DHT22;3661;53.288;10.458;2022-09-24T04:43:10;11.80;99.90
7240;DHT22;3661;53.288;10.458;2022-09-24T04:45:43;11.70;99.90
7240;DHT22;3661;53.288;10.458;2022-09-24T04:48:15;11.80;99.90
7240;DHT22;3661;53.288;10.458;2022-09-24T04:50:48;11.70;99.90
7240;DHT22;3661;53.288;10.458;2022-09-24T04:53:21;11.70;99.90
7240;DHT22;3661;53.288;10.458;2022-09-24T04:55:55;11.70;99.90
7240;DHT22;3661;53.288;10.458;2022-09-24T04:58:29;11.70;99.90
7240;DHT22;3661;53.288;10.458;2022-09-24T05:01:01;11.70;99.90
7240;DHT22;3661;53.288;10.458;2022-09-24T05:03:34;11.70;99.90
7240;DHT22;3661;53.288;10.458;2022-09-24T05:06:09;11.70;99.90
7240;DHT22;3661;53.288;10.458;2022-09-24T05:08:42;11.70;99.90
7240;DHT22;3661;53.288;10.458;2022-09-24T05:11:18;11.70;99.90
7240;DHT22;3661;53.288;10.458;2022-09-24T05:13:51;11.70;99.90
7240;DHT22;3661;53.288;10.458;2022-09-24T05:16:24;11.70;99.90
7240;DHT22;3661;53.288;10.458;2022-09-24T05:18:56;11.70;99.90
7240;DHT22;3661;53.288;10.458;2022-09-24T05:21:28;11.70;99.90
7240;DHT22;3661;53.288;10.458;2022-09-24T05:24:01;11.70;99.90
7240;DHT22;3661;53.288;10.458;2022-09-24T05:26:35;11.70;99.90
7240;DHT22;3661;53.288;10.458;2022-09-24T05:29:24;11.70;99.90
7240;DHT22;3661;53.288;10.458;2022-09-24T05:31:56;11.70;99.90
7240;DHT22;3661;53.288;10.458;2022-09-24T05:34:31;11.70;99.90
7240;DHT22;3661;53.288;10.458;2022-09-24T05:37:03;11.70;99.90
7240;DHT22;3661;53.288;10.458;2022-09-24T05:39:35;11.70;99.90
7240;DHT22;3661;53.288;10.458;2022-09-24T05:42:10;11.70;99.90
7240;DHT22;3661;53.288;10.458;2022-09-24T05:44:43;11.70;99.90
7240;DHT22;3661;53.288;10.458;2022-09-24T05:47:15;11.70;99.90
7240;DHT22;3661;53.288;10.458;2022-09-24T05:49:47;11.70;99.90
7240;DHT22;3661;53.288;10.458;2022-09-24T05:52:19;11.70;99.90
7240;DHT22;3661;53.288;10.458;2022-09-24T05:54:54;11.70;99.90
7240;DHT22;3661;53.288;10.458;2022-09-24T05:57:27;11.70;99.90
7240;DHT22;3661;53.288;10.458;2022-09-24T05:59:59;11.70;99.90
7240;DHT22;3661;53.288;10.458;2022-09-24T06:02:31;11.70;99.90
7240;DHT22;3661;53.288;10.458;2022-09-24T06:05:04;11.70;99.90
7240;DHT22;3661;53.288;10.458;2022-09-24T06:07:36;11.70;99.90
7240;DHT22;3661;53.288;10.458;2022-09-24T06:10:09;11.80;99.90
7240;DHT22;3661;53.288;10.458;2022-09-24T06:12:42;11.80;99.90
7240;DHT22;3661;53.288;10.458;2022-09-24T06:15:15;11.80;99.90
7240;DHT22;3661;53.288;10.458;2022-09-24T06:17:47;11.80;99.90
7240;DHT22;3661;53.288;10.458;2022-09-24T06:20:19;11.80;99.90
7240;DHT22;3661;53.288;10.458;2022-09-24T06:22:54;11.80;99.90
7240;DHT22;3661;53.288;10.458;2022-09-24T06:25:27;11.80;99.90
7240;DHT22;3661;53.288;10.458;2022-09-24T06:28:03;11.80;99.90
7240;DHT22;3661;53.288;10.458;2022-09-24T06:30:37;11.80;99.90
7240;DHT22;3661;53.288;10.458;2022-09-24T06:33:11;11.80;99.90
7240;DHT22;3661;53.288;10.458;2022-09-24T06:35:44;11.80;99.90
7240;DHT22;3661;53.288;10.458;2022-09-24T06:38:17;11.90;99.90
7240;DHT22;3661;53.288;10.458;2022-09-24T06:40:50;11.90;99.90
7240;DHT22;3661;53.288;10.458;2022-09-24T06:43:24;11.90;99.90
7240;DHT22;3661;53.288;10.458;2022-09-24T06:45:56;11.90;99.90
7240;DHT22;3661;53.288;10.458;2022-09-24T06:48:30;11.90;99.90
7240;DHT22;3661;53.288;10.458;2022-09-24T06:51:03;11.90;99.90
7240;DHT22;3661;53.288;10.458;2022-09-24T06:53:36;11.90;99.90
7240;DHT22;3661;53.288;10.458;2022-09-24T06:56:09;11.90;99.90
7240;DHT22;3661;53.288;10.458;2022-09-24T06:58:43;11.90;99.90
7240;DHT22;3661;53.288;10.458;2022-09-24T07:01:17;12.00;99.90
7240;DHT22;3661;53.288;10.458;2022-09-24T07:03:49;12.00;99.90
7240;DHT22;3661;53.288;10.458;2022-09-24T07:06:21;12.00;99.90
7240;DHT22;3661;53.288;10.458;2022-09-24T07:09:15;12.00;99.90
7240;DHT22;3661;53.288;10.458;2022-09-24T07:12:02;12.00;99.90
7240;DHT22;3661;53.288;10.458;2022-09-24T07:14:40;12.10;99.90
7240;DHT22;3661;53.288;10.458;2022-09-24T07:17:12;12.10;99.90
7240;DHT22;3661;53.288;10.458;2022-09-24T07:19:50;12.10;99.90
7240;DHT22;3661;53.288;10.458;2022-09-24T07:30:24;12.20;99.90
7240;DHT22;3661;53.288;10.458;2022-09-24T07:32:59;12.10;99.90
7240;DHT22;3661;53.288;10.458;2022-09-24T07:35:32;12.20;99.90
7240;DHT22;3661;53.288;10.458;2022-09-24T07:38:06;12.20;99.90
7240;DHT22;3661;53.288;10.458;2022-09-24T07:40:44;12.20;99.90
7240;DHT22;3661;53.288;10.458;2022-09-24T07:43:16;12.20;99.90
7240;DHT22;3661;53.288;10.458;2022-09-24T07:45:52;12.20;99.90
7240;DHT22;3661;53.288;10.458;2022-09-24T07:48:25;12.20;99.90
7240;DHT22;3661;53.288;10.458;2022-09-24T07:50:57;12.20;99.90
7240;DHT22;3661;53.288;10.458;2022-09-24T07:53:30;12.20;99.90
7240;DHT22;3661;53.288;10.458;2022-09-24T07:56:02;12.30;99.90
7240;DHT22;3661;53.288;10.458;2022-09-24T07:58:34;12.30;99.90
7240;DHT22;3661;53.288;10.458;2022-09-24T08:01:07;12.30;99.90
7240;DHT22;3661;53.288;10.458;2022-09-24T08:03:40;12.30;99.90
7240;DHT22;3661;53.288;10.458;2022-09-24T08:06:12;12.30;99.90
7240;DHT22;3661;53.288;10.458;2022-09-24T08:08:47;12.30;99.90
7240;DHT22;3661;53.288;10.458;2022-09-24T08:11:19;12.30;99.90
7240;DHT22;3661;53.288;10.458;2022-09-24T08:13:52;12.30;99.90
7240;DHT22;3661;53.288;10.458;2022-09-24T08:16:25;12.40;99.90
7240;DHT22;3661;53.288;10.458;2022-09-24T08:18:57;12.30;99.90
7240;DHT22;3661;53.288;10.458;2022-09-24T08:21:30;12.30;99.90
7240;DHT22;3661;53.288;10.458;2022-09-24T08:24:03;12.40;99.90
7240;DHT22;3661;53.288;10.458;2022-09-24T08:26:35;12.40;99.90
7240;DHT22;3661;53.288;10.458;2022-09-24T08:29:08;12.40;99.90
7240;DHT22;3661;53.288;10.458;2022-09-24T08:31:45;12.40;99.90
7240;DHT22;3661;53.288;10.458;2022-09-24T08:34:18;12.40;99.90
7240;DHT22;3661;53.288;10.458;2022-09-24T08:36:52;12.40;99.90
7240;DHT22;3661;53.288;10.458;2022-09-24T08:39:24;12.40;99.90
7240;DHT22;3661;53.288;10.458;2022-09-24T08:42:00;12.40;99.90
7240;DHT22;3661;53.288;10.458;2022-09-24T08:44:37;12.50;99.90
7240;DHT22;3661;53.288;10.458;2022-09-24T08:47:35;12.50;99.90
7240;DHT22;3661;53.288;10.458;2022-09-24T08:50:13;12.50;99.90
7240;DHT22;3661;53.288;10.458;2022-09-24T08:53:06;12.50;99.90
7240;DHT22;3661;53.288;10.458;2022-09-24T08:55:45;12.50;99.90
7240;DHT22;3661;53.288;10.458;2022-09-24T08:58:34;12.50;99.90
7240;DHT22;3661;53.288;10.458;2022-09-24T09:01:20;12.60;99.90
7240;DHT22;3661;53.288;10.458;2022-09-24T09:04:12;12.60;99.90
7240;DHT22;3661;53.288;10.458;2022-09-24T09:07:07;12.60;99.90
7240;DHT22;3661;53.288;10.458;2022-09-24T09:09:47;12.60;99.90
7240;DHT22;3661;53.288;10.458;2022-09-24T09:12:26;12.60;99.90
7240;DHT22;3661;53.288;10.458;2022-09-24T09:15:08;12.60;99.90
7240;DHT22;3661;53.288;10.458;2022-09-24T09:17:45;12.70;99.90
7240;DHT22;3661;53.288;10.458;2022-09-24T09:20:25;12.70;99.90
7240;DHT22;3661;53.288;10.458;2022-09-24T09:23:02;12.70;99.90
7240;DHT22;3661;53.288;10.458;2022-09-24T09:25:40;12.70;99.90
7240;DHT22;3661;53.288;10.458;2022-09-24T09:28:14;12.70;99.90
7240;DHT22;3661;53.288;10.458;2022-09-24T09:31:00;12.70;99.90
7240;DHT22;3661;53.288;10.458;2022-09-24T09:33:48;12.70;99.90
7240;DHT22;3661;53.288;10.458;2022-09-24T09:36:45;12.70;99.90
7240;DHT22;3661;53.288;10.458;2022-09-24T09:39:33;12.70;99.90
7240;DHT22;3661;53.288;10.458;2022-09-24T09:42:21;12.70;99.90
7240;DHT22;3661;53.288;10.458;2022-09-24T09:44:59;12.70;99.90
7240;DHT22;3661;53.288;10.458;2022-09-24T09:47:40;12.80;99.90
7240;DHT22;3661;53.288;10.458;2022-09-24T09:50:20;12.70;99.90
7240;DHT22;3661;53.288;10.458;2022-09-24T09:52:56;12.80;99.90
7240;DHT22;3661;53.288;10.458;2022-09-24T09:55:30;12.80;99.90
7240;DHT22;3661;53.288;10.458;2022-09-24T09:58:18;12.80;99.90
7240;DHT22;3661;53.288;10.458;2022-09-24T10:00:50;12.80;99.90
7240;DHT22;3661;53.288;10.458;2022-09-24T10:03:25;12.80;99.90
7240;DHT22;3661;53.288;10.458;2022-09-24T10:06:00;12.80;99.90
7240;DHT22;3661;53.288;10.458;2022-09-24T10:08:34;12.80;99.90
7240;DHT22;3661;53.288;10.458;2022-09-24T10:11:12;12.80;99.90
7240;DHT22;3661;53.288;10.458;2022-09-24T10:13:45;12.80;99.90
7240;DHT22;3661;53.288;10.458;2022-09-24T10:16:17;12.80;99.90
7240;DHT22;3661;53.288;10.458;2022-09-24T10:18:50;12.80;99.90
7240;DHT22;3661;53.288;10.458;2022-09-24T10:21:28;12.80;99.90
7240;DHT22;3661;53.288;10.458;2022-09-24T10:24:05;12.90;99.90
7240;DHT22;3661;53.288;10.458;2022-09-24T10:26:43;12.90;99.90
7240;DHT22;3661;53.288;10.458;2022-09-24T10:29:18;12.90;99.90
7240;DHT22;3661;53.288;10.458;2022-09-24T10:32:14;12.90;99.90
7240;DHT22;3661;53.288;10.458;2022-09-24T10:34:54;12.90;99.90
7240;DHT22;3661;53.288;10.458;2022-09-24T10:37:27;12.90;99.90
7240;DHT22;3661;53.288;10.458;2022-09-24T10:40:07;13.00;99.90
7240;DHT22;3661;53.288;10.458;2022-09-24T10:42:42;13.00;99.90
7240;DHT22;3661;53.288;10.458;2022-09-24T10:45:15;13.00;99.90
7240;DHT22;3661;53.288;10.458;2022-09-24T10:47:51;13.00;99.90
7240;DHT22;3661;53.288;10.458;2022-09-24T10:50:28;13.00;99.90
7240;DHT22;3661;53.288;10.458;2022-09-24T10:53:05;13.00;99.90
7240;DHT22;3661;53.288;10.458;2022-09-24T10:55:47;13.10;99.90
7240;DHT22;3661;53.288;10.458;2022-09-24T10:58:36;13.10;99.90
7240;DHT22;3661;53.288;10.458;2022-09-24T11:01:16;13.10;99.90
7240;DHT22;3661;53.288;10.458;2022-09-24T11:04:16;13.20;99.90
7240;DHT22;3661;53.288;10.458;2022-09-24T11:07:12;13.20;99.90
7240;DHT22;3661;53.288;10.458;2022-09-24T11:09:53;13.30;99.90
7240;DHT22;3661;53.288;10.458;2022-09-24T11:12:33;13.30;99.90
7240;DHT22;3661;53.288;10.458;2022-09-24T11:15:20;13.40;99.90
7240;DHT22;3661;53.288;10.458;2022-09-24T11:18:07;13.40;99.90
7240;DHT22;3661;53.288;10.458;2022-09-24T11:20:44;13.50;99.90
7240;DHT22;3661;53.288;10.458;2022-09-24T11:23:53;13.50;99.90
7240;DHT22;3661;53.288;10.458;2022-09-24T11:26:31;13.60;99.90
7240;DHT22;3661;53.288;10.458;2022-09-24T11:29:33;13.60;99.90
7240;DHT22;3661;53.288;10.458;2022-09-24T11:32:14;13.70;99.90
7240;DHT22;3661;53.288;10.458;2022-09-24T11:35:00;13.70;99.90
7240;DHT22;3661;53.288;10.458;2022-09-24T11:37:47;13.80;99.90
7240;DHT22;3661;53.288;10.458;2022-09-24T11:40:40;13.80;99.90
7240;DHT22;3661;53.288;10.458;2022-09-24T11:43:37;13.80;99.90
7240;DHT22;3661;53.288;10.458;2022-09-24T11:46:21;13.90;99.90
7240;DHT22;3661;53.288;10.458;2022-09-24T11:49:08;13.90;99.90
7240;DHT22;3661;53.288;10.458;2022-09-24T11:51:53;14.00;99.90
7240;DHT22;3661;53.288;10.458;2022-09-24T11:54:30;14.00;99.90
7240;DHT22;3661;53.288;10.458;2022-09-24T11:57:12;14.10;99.90
7240;DHT22;3661;53.288;10.458;2022-09-24T11:59:55;14.10;99.90
7240;DHT22;3661;53.288;10.458;2022-09-24T12:02:33;14.10;99.90
7240;DHT22;3661;53.288;10.458;2022-09-24T12:05:11;14.10;99.90
7240;DHT22;3661;53.288;10.458;2022-09-24T12:07:49;14.20;99.90
7240;DHT22;3661;53.288;10.458;2022-09-24T12:10:29;14.20;99.90
7240;DHT22;3661;53.288;10.458;2022-09-24T12:13:11;14.20;99.90
7240;DHT22;3661;53.288;10.458;2022-09-24T12:15:49;14.20;99.90
7240;DHT22;3661;53.288;10.458;2022-09-24T12:18:26;14.20;99.90
7240;DHT22;3661;53.288;10.458;2022-09-24T12:21:04;14.20;99.90
7240;DHT22;3661;53.288;10.458;2022-09-24T12:23:40;14.20;99.90
7240;DHT22;3661;53.288;10.458;2022-09-24T12:26:15;14.20;99.90
7240;DHT22;3661;53.288;10.458;2022-09-24T12:28:53;14.20;99.90
7240;DHT22;3661;53.288;10.458;2022-09-24T12:31:51;14.20;99.90
7240;DHT22;3661;53.288;10.458;2022-09-24T12:34:47;14.30;99.90
7240;DHT22;3661;53.288;10.458;2022-09-24T12:37:23;14.30;99.90
7240;DHT22;3661;53.288;10.458;2022-09-24T12:40:05;14.30;99.90
7240;DHT22;3661;53.288;10.458;2022-09-24T12:42:42;14.30;99.90
7240;DHT22;3661;53.288;10.458;2022-09-24T12:45:18;14.30;99.90
7240;DHT22;3661;53.288;10.458;2022-09-24T12:47:54;14.30;99.90
7240;DHT22;3661;53.288;10.458;2022-09-24T12:50:30;14.30;99.90
7240;DHT22;3661;53.288;10.458;2022-09-24T12:53:19;14.30;99.90
7240;DHT22;3661;53.288;10.458;2022-09-24T12:55:57;14.30;99.90
7240;DHT22;3661;53.288;10.458;2022-09-24T12:58:36;14.30;99.90
7240;DHT22;3661;53.288;10.458;2022-09-24T13:01:13;14.30;99.90
7240;DHT22;3661;53.288;10.458;2022-09-24T13:06:53;14.30;99.90
7240;DHT22;3661;53.288;10.458;2022-09-24T13:09:34;14.30;99.90
7240;DHT22;3661;53.288;10.458;2022-09-24T13:18:04;14.40;99.90
7240;DHT22;3661;53.288;10.458;2022-09-24T13:20:39;14.40;99.90
7240;DHT22;3661;53.288;10.458;2022-09-24T13:23:31;14.50;99.90
7240;DHT22;3661;53.288;10.458;2022-09-24T13:26:06;14.50;99.90
7240;DHT22;3661;53.288;10.458;2022-09-24T13:28:50;14.50;99.90
7240;DHT22;3661;53.288;10.458;2022-09-24T13:31:34;14.50;99.90
7240;DHT22;3661;53.288;10.458;2022-09-24T13:34:17;14.50;99.90
7240;DHT22;3661;53.288;10.458;2022-09-24T13:36:55;14.60;99.90
7240;DHT22;3661;53.288;10.458;2022-09-24T13:39:34;14.60;99.90
7240;DHT22;3661;53.288;10.458;2022-09-24T13:42:16;14.60;99.90
7240;DHT22;3661;53.288;10.458;2022-09-24T13:44:52;14.60;99.90
7240;DHT22;3661;53.288;10.458;2022-09-24T13:47:29;14.70;99.90
7240;DHT22;3661;53.288;10.458;2022-09-24T13:50:08;14.60;99.90
7240;DHT22;3661;53.288;10.458;2022-09-24T13:52:47;14.70;99.90
7240;DHT22;3661;53.288;10.458;2022-09-24T13:55:25;14.70;99.90
7240;DHT22;3661;53.288;10.458;2022-09-24T13:58:00;14.70;99.90
7240;DHT22;3661;53.288;10.458;2022-09-24T14:00:36;14.70;99.90
7240;DHT22;3661;53.288;10.458;2022-09-24T14:03:19;14.70;99.90
7240;DHT22;3661;53.288;10.458;2022-09-24T14:05:52;14.70;99.90
7240;DHT22;3661;53.288;10.458;2022-09-24T14:08:27;14.70;99.90
7240;DHT22;3661;53.288;10.458;2022-09-24T14:11:05;14.70;99.90
7240;DHT22;3661;53.288;10.458;2022-09-24T14:13:39;14.80;99.90
7240;DHT22;3661;53.288;10.458;2022-09-24T14:16:16;14.80;99.90
7240;DHT22;3661;53.288;10.458;2022-09-24T14:19:00;14.80;99.90
7240;DHT22;3661;53.288;10.458;2022-09-24T14:21:43;14.80;99.90
7240;DHT22;3661;53.288;10.458;2022-09-24T14:24:20;14.80;99.90
7240;DHT22;3661;53.288;10.458;2022-09-24T14:26:57;14.80;99.90
7240;DHT22;3661;53.288;10.458;2022-09-24T14:29:37;14.90;99.90
7240;DHT22;3661;53.288;10.458;2022-09-24T14:32:19;14.90;99.90
7240;DHT22;3661;53.288;10.458;2022-09-24T14:34:53;14.90;99.90
7240;DHT22;3661;53.288;10.458;2022-09-24T14:37:28;14.80;99.90
7240;DHT22;3661;53.288;10.458;2022-09-24T14:40:10;14.80;99.90
7240;DHT22;3661;53.288;10.458;2022-09-24T14:42:46;14.80;99.90
7240;DHT22;3661;53.288;10.458;2022-09-24T14:45:20;14.80;99.90
7240;DHT22;3661;53.288;10.458;2022-09-24T14:48:03;14.80;99.90
7240;DHT22;3661;53.288;10.458;2022-09-24T14:50:37;14.80;99.90
7240;DHT22;3661;53.288;10.458;2022-09-24T14:53:20;14.70;99.90
7240;DHT22;3661;53.288;10.458;2022-09-24T14:55:52;14.70;99.90
7240;DHT22;3661;53.288;10.458;2022-09-24T14:58:33;14.70;99.90
7240;DHT22;3661;53.288;10.458;2022-09-24T15:01:12;14.70;99.90
7240;DHT22;3661;53.288;10.458;2022-09-24T15:03:48;14.70;99.90
7240;DHT22;3661;53.288;10.458;2022-09-24T15:06:22;14.70;99.90
7240;DHT22;3661;53.288;10.458;2022-09-24T15:08:58;14.60;99.90
7240;DHT22;3661;53.288;10.458;2022-09-24T15:11:33;14.60;99.90
7240;DHT22;3661;53.288;10.458;2022-09-24T15:14:17;14.60;99.90
7240;DHT22;3661;53.288;10.458;2022-09-24T15:16:54;14.60;99.90
7240;DHT22;3661;53.288;10.458;2022-09-24T15:19:27;14.60;99.90
7240;DHT22;3661;53.288;10.458;2022-09-24T15:22:00;14.50;99.90
7240;DHT22;3661;53.288;10.458;2022-09-24T15:24:32;14.50;99.90
7240;DHT22;3661;53.288;10.458;2022-09-24T15:27:14;14.50;99.90
7240;DHT22;3661;53.288;10.458;2022-09-24T15:29:48;14.50;99.90
7240;DHT22;3661;53.288;10.458;2022-09-24T15:32:20;14.50;99.90
7240;DHT22;3661;53.288;10.458;2022-09-24T15:34:53;14.40;99.90
7240;DHT22;3661;53.288;10.458;2022-09-24T15:37:27;14.50;99.90
7240;DHT22;3661;53.288;10.458;2022-09-24T15:40:05;14.50;99.90
7240;DHT22;3661;53.288;10.458;2022-09-24T15:42:37;14.40;99.90
7240;DHT22;3661;53.288;10.458;2022-09-24T15:45:17;14.40;99.90
7240;DHT22;3661;53.288;10.458;2022-09-24T15:47:49;14.40;99.90
7240;DHT22;3661;53.288;10.458;2022-09-24T15:50:23;14.40;99.90
7240;DHT22;3661;53.288;10.458;2022-09-24T15:52:57;14.30;99.90
7240;DHT22;3661;53.288;10.458;2022-09-24T15:55:30;14.30;99.90
7240;DHT22;3661;53.288;10.458;2022-09-24T15:58:04;14.30;99.90
7240;DHT22;3661;53.288;10.458;2022-09-24T16:00:43;14.30;99.90
7240;DHT22;3661;53.288;10.458;2022-09-24T16:03:21;14.30;99.90
7240;DHT22;3661;53.288;10.458;2022-09-24T16:05:55;14.20;99.90
7240;DHT22;3661;53.288;10.458;2022-09-24T16:08:28;14.20;99.90
7240;DHT22;3661;53.288;10.458;2022-09-24T16:11:00;14.20;99.90
7240;DHT22;3661;53.288;10.458;2022-09-24T16:13:36;14.20;99.90
7240;DHT22;3661;53.288;10.458;2022-09-24T16:16:10;14.10;99.90
7240;DHT22;3661;53.288;10.458;2022-09-24T16:18:42;14.10;99.90
7240;DHT22;3661;53.288;10.458;2022-09-24T16:21:14;14.10;99.90
7240;DHT22;3661;53.288;10.458;2022-09-24T16:23:46;14.10;99.90
7240;DHT22;3661;53.288;10.458;2022-09-24T16:26:18;14.10;99.90
7240;DHT22;3661;53.288;10.458;2022-09-24T16:28:50;14.00;99.90
7240;DHT22;3661;53.288;10.458;2022-09-24T16:31:23;14.00;99.90
7240;DHT22;3661;53.288;10.458;2022-09-24T16:33:55;14.00;99.90
7240;DHT22;3661;53.288;10.458;2022-09-24T16:36:28;14.00;99.90
7240;DHT22;3661;53.288;10.458;2022-09-24T16:39:00;14.00;99.90
7240;DHT22;3661;53.288;10.458;2022-09-24T16:41:32;13.90;99.90
7240;DHT22;3661;53.288;10.458;2022-09-24T16:44:06;13.90;99.90
7240;DHT22;3661;53.288;10.458;2022-09-24T16:46:40;13.90;99.90
7240;DHT22;3661;53.288;10.458;2022-09-24T16:49:13;13.90;99.90
7240;DHT22;3661;53.288;10.458;2022-09-24T16:51:45;13.80;99.90
7240;DHT22;3661;53.288;10.458;2022-09-24T16:54:17;13.80;99.90
7240;DHT22;3661;53.288;10.458;2022-09-24T16:56:49;13.80;99.90
7240;DHT22;3661;53.288;10.458;2022-09-24T16:59:21;13.80;99.90
7240;DHT22;3661;53.288;10.458;2022-09-24T17:01:55;13.80;99.90
7240;DHT22;3661;53.288;10.458;2022-09-24T17:04:27;13.70;99.90
7240;DHT22;3661;53.288;10.458;2022-09-24T17:06:59;13.70;99.90
7240;DHT22;3661;53.288;10.458;2022-09-24T17:09:31;13.70;99.90
7240;DHT22;3661;53.288;10.458;2022-09-24T17:12:20;13.70;99.90
7240;DHT22;3661;53.288;10.458;2022-09-24T17:14:52;13.60;99.90
7240;DHT22;3661;53.288;10.458;2022-09-24T17:17:26;13.70;99.90
7240;DHT22;3661;53.288;10.458;2022-09-24T17:19:59;13.60;99.90
7240;DHT22;3661;53.288;10.458;2022-09-24T17:22:32;13.60;99.90
7240;DHT22;3661;53.288;10.458;2022-09-24T17:25:05;13.60;99.90